createdAt,value
2022-11-05T00:04:00.463Z,22.92
2022-11-05T00:12:20.363Z,22.02
2022-11-05T00:20:28.267Z,24.08
2022-11-05T00:28:35.128Z,23.60
2022-11-05T00:36:42.997Z,21.65
2022-11-05T00:45:00.678Z,23.00
2022-11-05T00:53:09.175Z,22.63
2022-11-05T01:01:14.900Z,22.33
2022-11-05T01:09:22.840Z,20.55
2022-11-05T01:17:28.091Z,22.73
2022-11-05T01:25:35.916Z,21.50
2022-11-05T01:33:41.198Z,18.50
2022-11-05T01:41:49.083Z,15.52
2022-11-05T01:49:55.008Z,13.48
2022-11-05T01:58:04.411Z,13.85
2022-11-05T02:06:10.852Z,13.15
2022-11-05T02:14:18.869Z,13.15
2022-11-05T02:22:58.720Z,13.23
2022-11-05T02:31:14.844Z,13.13
2022-11-05T02:39:30.568Z,12.02
2022-11-05T02:47:47.109Z,12.98
2022-11-05T02:55:59.520Z,13.45
2022-11-05T03:04:11.046Z,13.63
2022-11-05T03:12:25.417Z,14.82
2022-11-05T03:20:38.093Z,12.75
2022-11-05T03:28:48.175Z,13.63
2022-11-05T03:36:59.118Z,14.82
2022-11-05T03:45:12.345Z,14.30
2022-11-05T03:53:27.880Z,16.23
2022-11-05T04:01:33.786Z,15.00
2022-11-05T04:09:54.167Z,14.93
2022-11-05T04:18:00.322Z,14.35
2022-11-05T04:26:08.367Z,15.07
2022-11-05T04:34:13.705Z,14.95
2022-11-05T04:42:22.163Z,14.70
2022-11-05T04:50:27.435Z,15.98
2022-11-05T04:58:35.293Z,15.88
2022-11-05T05:06:40.585Z,15.32
2022-11-05T05:14:50.893Z,14.95
2022-11-05T05:22:56.998Z,16.30
2022-11-05T05:31:05.298Z,14.18
2022-11-05T05:39:11.498Z,14.95
2022-11-05T05:47:19.650Z,13.82
2022-11-05T05:55:24.914Z,14.05
2022-11-05T06:03:33.185Z,23.25
2022-11-05T06:11:38.537Z,17.00
2022-11-05T06:19:46.424Z,16.70
2022-11-05T06:27:51.743Z,16.92
2022-11-05T06:36:01.840Z,16.73
2022-11-05T06:44:07.484Z,15.70
2022-11-05T06:52:15.985Z,16.58
2022-11-05T07:00:21.835Z,15.23
2022-11-05T07:08:29.801Z,13.50
2022-11-05T07:16:35.131Z,13.88
2022-11-05T07:24:43.868Z,12.73
2022-11-05T07:32:49.148Z,13.05
2022-11-05T07:40:57.488Z,14.13
2022-11-05T07:49:02.760Z,13.68
2022-11-05T07:57:10.806Z,12.52
2022-11-05T08:05:16.102Z,12.98
2022-11-05T08:13:24.153Z,13.18
2022-11-05T08:21:31.284Z,12.32
2022-11-05T08:29:41.063Z,13.38
2022-11-05T08:37:46.289Z,12.63
2022-11-05T08:45:55.163Z,12.18
2022-11-05T08:54:02.579Z,12.90
2022-11-05T09:02:13.074Z,13.02
2022-11-05T09:10:18.709Z,12.40
2022-11-05T09:18:26.740Z,12.43
2022-11-05T09:26:32.094Z,11.55
2022-11-05T09:34:40.050Z,11.20
2022-11-05T09:42:52.500Z,10.90
2022-11-05T09:51:02.684Z,11.68
2022-11-05T09:59:17.234Z,11.15
2022-11-05T10:07:29.198Z,10.27
2022-11-05T10:15:37.517Z,10.93
2022-11-05T10:23:46.275Z,11.25
2022-11-05T10:31:51.802Z,9.90
2022-11-05T10:39:59.960Z,9.88
2022-11-05T10:48:43.875Z,9.23
2022-11-05T10:56:52.433Z,10.90
2022-11-05T11:04:59.461Z,10.40
2022-11-05T11:13:08.228Z,13.35
2022-11-05T11:21:19.747Z,12.00
2022-11-05T11:29:29.505Z,10.27
2022-11-05T11:37:42.121Z,9.80
2022-11-05T11:45:54.778Z,9.93
2022-11-05T11:54:01.925Z,9.67
2022-11-05T12:02:53.915Z,9.73
2022-11-05T12:11:09.557Z,8.40
2022-11-05T12:19:27.566Z,8.90
2022-11-05T12:27:49.824Z,9.02
2022-11-05T12:36:09.571Z,11.15
2022-11-05T12:44:57.187Z,9.18
2022-11-05T12:53:38.095Z,10.25
2022-11-05T13:01:51.789Z,9.80
2022-11-05T13:10:01.329Z,10.32
2022-11-05T13:18:17.044Z,9.63
2022-11-05T13:26:27.514Z,7.68
2022-11-05T13:34:37.864Z,7.80
2022-11-05T13:43:00.508Z,8.50
2022-11-05T13:51:36.167Z,9.57
2022-11-05T13:59:57.991Z,9.88
2022-11-05T14:08:12.664Z,10.13
2022-11-05T14:16:22.410Z,11.75
2022-11-05T14:24:47.406Z,12.75
2022-11-05T14:32:55.630Z,13.52
2022-11-05T14:41:06.912Z,36.63
2022-11-05T14:49:20.168Z,35.92
2022-11-05T14:58:01.496Z,15.27
2022-11-05T15:06:34.669Z,13.73
2022-11-05T15:14:50.407Z,11.20
2022-11-05T15:23:02.402Z,11.25
2022-11-05T15:31:23.613Z,10.32
2022-11-05T15:39:35.235Z,12.88
2022-11-05T15:47:55.545Z,13.25
2022-11-05T15:56:17.872Z,18.23
2022-11-05T16:04:25.566Z,25.30
2022-11-05T16:12:36.492Z,30.05
2022-11-05T16:20:42.096Z,23.40
2022-11-05T16:28:53.890Z,14.48
2022-11-05T16:37:00.688Z,13.18
2022-11-05T16:45:10.976Z,13.63
2022-11-05T16:53:16.769Z,15.10
2022-11-05T17:01:26.331Z,16.60
2022-11-05T17:09:32.019Z,16.63
2022-11-05T17:17:39.908Z,16.98
2022-11-05T17:25:46.996Z,17.35
2022-11-05T17:33:59.921Z,16.50
2022-11-05T17:42:06.293Z,17.10
2022-11-05T17:50:16.494Z,18.42
2022-11-05T17:58:24.720Z,24.95
2022-11-05T18:06:32.926Z,27.00
2022-11-05T18:14:42.253Z,29.63
2022-11-05T18:22:54.448Z,32.20
2022-11-05T18:31:00.169Z,31.38
2022-11-05T18:39:09.674Z,32.13
2022-11-05T18:47:15.112Z,33.88
2022-11-05T18:55:23.171Z,32.72
2022-11-05T19:03:28.501Z,33.58
2022-11-05T19:11:37.032Z,37.38
2022-11-05T19:19:42.477Z,37.92
2022-11-05T19:27:50.373Z,36.03
2022-11-05T19:35:55.676Z,38.05
2022-11-05T19:44:03.771Z,37.25
2022-11-05T19:52:09.581Z,39.25
2022-11-05T20:00:18.477Z,39.83
2022-11-05T20:08:24.133Z,36.25
2022-11-05T20:16:38.100Z,36.45
2022-11-05T20:24:43.365Z,37.22
2022-11-05T20:32:51.202Z,37.42
2022-11-05T20:40:57.034Z,30.85
2022-11-05T20:49:05.035Z,32.60
2022-11-05T20:57:10.337Z,30.35
2022-11-05T21:05:19.417Z,27.38
2022-11-05T21:13:25.173Z,26.42
2022-11-05T21:21:40.081Z,26.17
2022-11-05T21:29:46.443Z,29.23
2022-11-05T21:37:54.613Z,32.60
2022-11-05T21:46:03.539Z,33.33
2022-11-05T21:54:25.315Z,31.75
2022-11-05T22:02:31.305Z,29.40
2022-11-05T22:10:39.264Z,30.55
2022-11-05T22:18:44.506Z,30.10
2022-11-05T22:26:52.712Z,30.00
2022-11-05T22:34:59.842Z,29.83
2022-11-05T22:43:18.072Z,30.20
2022-11-05T22:51:27.367Z,31.23
2022-11-05T22:59:38.491Z,32.42
2022-11-05T23:07:56.210Z,31.25
2022-11-05T23:16:18.697Z,34.40
2022-11-05T23:24:24.276Z,33.42
2022-11-05T23:32:34.287Z,32.22
2022-11-05T23:40:59.921Z,31.00
2022-11-05T23:49:07.863Z,32.17
2022-11-05T23:57:13.192Z,29.35
